Accueil
METAR-TAF:

METAR-TAF

Aéroports :

Bolzano, Italie

latitude: 46-28N, longitude: 011-20E, altitude: 262 m

Observation

Le bulletin a été fait il y a 23 minutes, à 10:50 UTC
Vent 2 kt de sud
Température 6°C
Humidité 87%
Pression 1014 hPa
Visibilité: 8000 m
Nuages fragmentés à une hauteur de 3500 ft
Ciel couvert à une hauteur de 4500 ft
bruine

METAR: LIPB 251050Z 17002KT 8000 DZ BKN035 OVC045 06/04 Q1014

Heure: 12:13 (11:13 UTC)

Prévision

Le bulletin a été fait il y a 6 heures et 13 minutes, à 05:00 UTC
Prévision valable du 25 à 06 UTC au 26 à 06 UTC
Vent 5 kt de direction variable
Visibilité: 4000 m
Nuages épars à une hauteur de 3000 ft
pluie
Evoluant progressivement
du 25 à 16 UTC au 25 à 18 UTC
Visibilité: 8000 m
Evoluant progressivement
du 25 à 18 UTC au 25 à 20 UTC
Vent 12 kt de nord

TAF: LIPB 250500Z 2506/2606 VRB05KT 4000 RA SCT030 BECMG 2516/2518 8000 NSW BECMG 2518/2520 01012KT

Observations et prévisions météorologiques de plus de 4000 aéroports (messages METAR et TAF).

Les stations disponibles sont représentées par des disques jaunes et rouges sur la carte.

Passer la souris dessus pour voir le nom de la station.

Cliquer dessus pour voir les observations et prévisions météorologiques.

Pour changer de carte: cliquez sur les boutons verts avec une croix noire pour zoomer, sur le bouton vert avec un tiret pour effectuer un zoom arrière, ou sur les flèches vertes pour les cartes adjacentes.


METAR-TAF: